PPIZ METAR and TAF weather

Enter ICAO airport designator
Station Type Date Time Source
PPIZ METAR 2020/06/06 19:08 UTC NOAA

PPIZ 061908Z AUTO 28006KT 3SM BR OVC002 02/02 A3000 RMK AO2 FZRANO


Station Type Date Time Source
PPIZ Decoded METAR 2020/06/06 19:08 UTC NOAA

Point Lay, Point Lay LRRS Airport, AK, United States (PPIZ) 69-43N 163-00W
Jun 06, 2020 - 03:08 PM EDT / 2020.06.06 1908 UTC
Wind: from the W (280 degrees) at 7 MPH (6 KT):0
Visibility: 3 mile(s):0
Sky conditions: overcast
Weather: mist
Temperature: 35 F (2 C)
Windchill: 28 F (-2 C):1
Dew Point: 35 F (2 C)
Relative Humidity: 100%
Pressure (altimeter): 30 in. Hg (1015 hPa)
ob: PPIZ 061908Z AUTO 28006KT 3SM BR OVC002 02/02 A3000 RMK AO2 FZRANO
cycle: 19

Station Type Date Time Source
PPIZ TAF UTC NOAA

Error!

Example: see airport list